createdAt,value
2023-05-10T00:01:23.582Z,20.46
2023-05-10T00:03:54.800Z,20.44
2023-05-10T00:06:26.925Z,20.42
2023-05-10T00:08:58.467Z,20.41
2023-05-10T00:11:30.133Z,20.41
2023-05-10T00:14:01.327Z,20.43
2023-05-10T00:16:33.028Z,20.43
2023-05-10T00:19:04.493Z,20.44
2023-05-10T00:21:36.324Z,20.45
2023-05-10T00:24:08.504Z,20.45
2023-05-10T00:26:40.076Z,20.45
2023-05-10T00:29:11.535Z,20.46
2023-05-10T00:31:42.992Z,20.45
2023-05-10T00:34:15.214Z,20.44
2023-05-10T00:36:46.674Z,20.43
2023-05-10T00:39:18.051Z,20.42
2023-05-10T00:41:49.954Z,20.41
2023-05-10T00:44:21.741Z,20.40
2023-05-10T00:46:53.691Z,20.39
2023-05-10T00:49:25.614Z,20.37
2023-05-10T00:51:57.208Z,20.36
2023-05-10T00:54:29.167Z,20.35
2023-05-10T00:57:00.658Z,20.32
2023-05-10T00:59:33.000Z,20.31
2023-05-10T01:02:04.969Z,20.31
2023-05-10T01:04:37.592Z,20.30
2023-05-10T01:07:09.334Z,20.29
2023-05-10T01:09:41.248Z,20.28
2023-05-10T01:12:13.328Z,20.27
2023-05-10T01:14:45.689Z,20.27
2023-05-10T01:17:18.455Z,20.27
2023-05-10T01:19:50.275Z,20.28
2023-05-10T01:22:59.725Z,20.29
2023-05-10T01:25:50.975Z,20.29
2023-05-10T01:28:48.507Z,20.29
2023-05-10T01:31:42.738Z,20.28
2023-05-10T01:34:19.572Z,20.27
2023-05-10T01:36:54.757Z,20.26
2023-05-10T01:39:35.050Z,20.27
2023-05-10T01:42:11.053Z,20.28
2023-05-10T01:44:48.990Z,20.27
2023-05-10T01:47:28.063Z,20.27
2023-05-10T01:50:03.976Z,20.27
2023-05-10T01:52:40.677Z,20.28
2023-05-10T01:55:15.625Z,20.28
2023-05-10T01:57:50.341Z,20.28
2023-05-10T02:00:23.539Z,20.28
2023-05-10T02:02:58.258Z,20.27
2023-05-10T02:05:31.640Z,20.27
2023-05-10T02:08:05.591Z,20.26
2023-05-10T02:10:39.258Z,20.26
2023-05-10T02:13:12.680Z,20.25
2023-05-10T02:15:46.238Z,20.26
2023-05-10T02:18:18.176Z,20.24
2023-05-10T02:20:50.457Z,20.21
2023-05-10T02:23:24.099Z,20.21
2023-05-10T02:25:56.382Z,20.21
2023-05-10T02:28:29.184Z,20.21
2023-05-10T02:31:00.919Z,20.20
2023-05-10T02:33:35.207Z,20.18
2023-05-10T02:36:09.290Z,20.17
2023-05-10T02:38:42.640Z,20.16
2023-05-10T02:41:15.135Z,20.15
2023-05-10T02:43:48.519Z,20.15
2023-05-10T02:46:20.130Z,20.13
2023-05-10T02:48:51.434Z,20.11
2023-05-10T02:51:26.557Z,20.10
2023-05-10T02:53:59.665Z,20.09
2023-05-10T02:56:35.482Z,20.07
2023-05-10T02:59:07.350Z,20.07
2023-05-10T03:01:38.980Z,20.07
2023-05-10T03:04:11.788Z,20.07
2023-05-10T03:06:44.375Z,20.08
2023-05-10T03:09:17.349Z,20.08
2023-05-10T03:11:59.052Z,20.08
2023-05-10T03:14:41.896Z,20.07
2023-05-10T03:17:18.197Z,20.07
2023-05-10T03:19:55.383Z,20.06
2023-05-10T03:22:33.124Z,20.05
2023-05-10T03:25:07.964Z,20.03
2023-05-10T03:27:42.304Z,20.02
2023-05-10T03:30:16.023Z,20.00
2023-05-10T03:32:47.950Z,19.96
2023-05-10T03:35:21.145Z,19.95
2023-05-10T03:37:52.289Z,19.95
2023-05-10T03:40:24.395Z,19.96
2023-05-10T03:42:55.773Z,19.97
2023-05-10T03:45:27.528Z,19.96
2023-05-10T03:47:59.266Z,19.95
2023-05-10T03:50:30.963Z,19.93
2023-05-10T03:53:03.309Z,19.92
2023-05-10T03:55:37.673Z,19.92
2023-05-10T03:58:09.389Z,19.90
2023-05-10T04:00:44.908Z,19.88
2023-05-10T04:03:18.333Z,19.82
2023-05-10T04:05:49.870Z,19.79
2023-05-10T04:08:21.459Z,19.78
2023-05-10T04:10:52.776Z,19.79
2023-05-10T04:13:25.057Z,19.79
2023-05-10T04:15:56.653Z,19.79
2023-05-10T04:18:28.615Z,19.80
2023-05-10T04:21:00.096Z,19.80
2023-05-10T04:23:31.924Z,19.80
2023-05-10T04:26:06.457Z,19.80
2023-05-10T04:28:37.608Z,19.84
2023-05-10T04:31:10.525Z,19.93
2023-05-10T04:33:42.470Z,19.96
2023-05-10T04:36:14.997Z,20.02
2023-05-10T04:38:46.482Z,20.09
2023-05-10T04:41:17.604Z,20.17
2023-05-10T04:43:50.166Z,20.21
2023-05-10T04:46:21.605Z,20.26
2023-05-10T04:48:53.019Z,20.30
2023-05-10T04:51:24.229Z,20.32
2023-05-10T04:54:05.247Z,20.34
2023-05-10T04:56:38.601Z,20.38
2023-05-10T04:59:10.199Z,20.43
2023-05-10T05:01:41.935Z,20.52
2023-05-10T05:04:13.369Z,20.59
2023-05-10T05:06:44.699Z,20.62
2023-05-10T05:09:16.470Z,20.61
2023-05-10T05:11:48.161Z,20.63
2023-05-10T05:14:22.161Z,20.64
2023-05-10T05:16:53.405Z,20.71
2023-05-10T05:19:25.038Z,20.79
2023-05-10T05:21:57.379Z,20.83
2023-05-10T05:24:28.671Z,20.86
2023-05-10T05:27:00.399Z,20.90
2023-05-10T05:29:32.016Z,20.91
2023-05-10T05:32:03.764Z,20.95
2023-05-10T05:34:35.611Z,20.93
2023-05-10T05:37:07.076Z,20.90
2023-05-10T05:39:40.002Z,20.82
2023-05-10T05:42:12.143Z,20.80
2023-05-10T05:44:43.706Z,20.82
2023-05-10T05:47:15.487Z,20.81
2023-05-10T05:49:47.589Z,20.85
2023-05-10T05:52:19.244Z,20.61
2023-05-10T05:54:50.577Z,20.45
2023-05-10T05:57:22.162Z,20.47
2023-05-10T05:59:53.779Z,20.55
2023-05-10T06:02:25.538Z,20.59
2023-05-10T06:04:56.922Z,20.59
2023-05-10T06:07:28.483Z,20.52
2023-05-10T06:09:59.710Z,20.50
2023-05-10T06:12:31.568Z,20.62
2023-05-10T06:15:03.337Z,20.77
2023-05-10T06:17:34.896Z,20.93
2023-05-10T06:20:07.074Z,21.10
2023-05-10T06:22:38.449Z,21.22
2023-05-10T06:25:11.665Z,21.31
2023-05-10T06:27:43.302Z,21.38
2023-05-10T06:30:16.755Z,21.44
2023-05-10T06:32:48.366Z,21.50
2023-05-10T06:35:20.840Z,21.53
2023-05-10T06:37:52.430Z,21.56
2023-05-10T06:40:23.799Z,21.58
2023-05-10T06:42:55.066Z,21.61
2023-05-10T06:45:26.412Z,21.64
2023-05-10T06:47:58.355Z,21.65
2023-05-10T06:50:29.858Z,21.67
2023-05-10T06:53:01.691Z,21.68
2023-05-10T06:55:33.482Z,21.69
2023-05-10T06:58:04.884Z,21.68
2023-05-10T07:00:40.291Z,21.69
2023-05-10T07:03:12.071Z,21.74
2023-05-10T07:05:44.267Z,21.80
2023-05-10T07:08:15.930Z,21.87
2023-05-10T07:10:48.109Z,21.95
2023-05-10T07:13:19.303Z,22.02
2023-05-10T07:15:51.068Z,22.10
2023-05-10T07:18:22.560Z,22.21
2023-05-10T07:20:54.140Z,22.31
2023-05-10T07:23:25.475Z,22.42
2023-05-10T07:25:58.520Z,22.48
2023-05-10T07:28:29.978Z,22.52
2023-05-10T07:31:01.903Z,22.54
2023-05-10T07:33:33.402Z,22.58
2023-05-10T07:36:04.816Z,22.61
2023-05-10T07:38:37.481Z,22.66
2023-05-10T07:41:09.767Z,22.70
2023-05-10T07:43:41.127Z,22.75
2023-05-10T07:46:12.534Z,22.83
2023-05-10T07:48:44.097Z,22.89
2023-05-10T07:51:15.690Z,22.95
2023-05-10T07:53:47.150Z,22.98
2023-05-10T07:56:30.764Z,23.02
2023-05-10T07:59:02.486Z,23.06
2023-05-10T08:01:36.837Z,23.10
2023-05-10T08:04:08.711Z,23.14
2023-05-10T08:06:40.419Z,23.14
2023-05-10T08:09:12.302Z,23.15
2023-05-10T08:11:43.922Z,23.15
2023-05-10T08:14:15.235Z,23.15
2023-05-10T08:16:46.579Z,23.14
2023-05-10T08:19:20.082Z,23.15
2023-05-10T08:21:52.068Z,23.17
2023-05-10T08:24:23.501Z,23.19
2023-05-10T08:26:55.050Z,23.19
2023-05-10T08:29:28.278Z,23.19
2023-05-10T08:32:00.505Z,23.19
2023-05-10T08:34:32.602Z,23.19
2023-05-10T08:37:04.125Z,23.17
2023-05-10T08:39:39.435Z,23.16
2023-05-10T08:42:11.811Z,23.16
2023-05-10T08:44:44.144Z,23.17
2023-05-10T08:47:17.856Z,23.20
2023-05-10T08:49:52.269Z,23.26
2023-05-10T08:52:25.018Z,23.32
2023-05-10T08:54:56.394Z,23.34
2023-05-10T08:57:28.298Z,23.38
2023-05-10T09:00:00.399Z,23.45
2023-05-10T09:02:32.192Z,23.52
2023-05-10T09:05:04.147Z,23.58
2023-05-10T09:07:36.403Z,23.67
2023-05-10T09:10:10.610Z,23.77
2023-05-10T09:12:42.843Z,23.87
2023-05-10T09:15:17.371Z,23.98
2023-05-10T09:17:49.943Z,24.06
2023-05-10T09:20:21.533Z,24.10
2023-05-10T09:22:53.092Z,24.14
2023-05-10T09:25:24.560Z,24.17
2023-05-10T09:27:57.323Z,24.20
2023-05-10T09:30:30.780Z,24.27
2023-05-10T09:33:03.935Z,24.33
2023-05-10T09:35:37.253Z,24.42
2023-05-10T09:38:09.304Z,24.53
2023-05-10T09:40:40.826Z,24.64
2023-05-10T09:43:12.997Z,24.76
2023-05-10T09:45:45.189Z,24.87
2023-05-10T09:48:16.650Z,24.97
2023-05-10T09:50:48.072Z,25.07
2023-05-10T09:53:20.173Z,25.18
2023-05-10T09:55:52.097Z,25.29
2023-05-10T09:58:23.495Z,25.39
2023-05-10T10:00:56.164Z,25.47
2023-05-10T10:03:28.951Z,25.56
2023-05-10T10:06:01.666Z,25.65
2023-05-10T10:08:33.357Z,25.71
2023-05-10T10:11:05.006Z,25.79
2023-05-10T10:13:36.868Z,25.87
2023-05-10T10:16:11.078Z,25.94
2023-05-10T10:18:43.084Z,26.01
2023-05-10T10:21:16.036Z,26.06
2023-05-10T10:23:48.381Z,26.04
2023-05-10T10:26:22.221Z,26.01
2023-05-10T10:29:06.578Z,25.99
2023-05-10T10:31:43.191Z,25.99
2023-05-10T10:34:25.197Z,26.01
2023-05-10T10:36:57.505Z,26.05
2023-05-10T10:39:29.313Z,26.06
2023-05-10T10:42:01.655Z,26.06
2023-05-10T10:44:41.750Z,26.12
2023-05-10T10:47:30.028Z,26.12
2023-05-10T10:50:14.079Z,26.15
2023-05-10T10:52:46.807Z,26.16
2023-05-10T10:55:20.318Z,26.17
2023-05-10T10:57:55.853Z,26.18
2023-05-10T11:00:32.867Z,26.21
2023-05-10T11:03:14.520Z,26.25
2023-05-10T11:05:47.358Z,26.30
2023-05-10T11:08:22.068Z,26.35
2023-05-10T11:11:09.744Z,26.41
2023-05-10T11:13:44.781Z,26.47
2023-05-10T11:16:19.217Z,26.51
2023-05-10T11:19:05.979Z,26.52
2023-05-10T11:21:47.841Z,26.54
2023-05-10T11:24:21.472Z,26.57
2023-05-10T11:26:54.034Z,26.60
2023-05-10T11:29:27.494Z,26.63
2023-05-10T11:32:01.817Z,26.66
2023-05-10T11:34:34.830Z,26.69
2023-05-10T11:37:06.622Z,26.72
2023-05-10T11:39:37.886Z,26.74
2023-05-10T11:42:11.128Z,26.79
2023-05-10T11:44:44.491Z,26.82
2023-05-10T11:47:16.030Z,26.84
2023-05-10T11:49:49.219Z,26.87
2023-05-10T11:52:22.726Z,26.94
2023-05-10T11:54:57.258Z,26.89
2023-05-10T11:57:32.473Z,26.80
2023-05-10T12:00:05.067Z,26.71
2023-05-10T12:02:40.023Z,26.67
2023-05-10T12:05:13.173Z,26.63
2023-05-10T12:07:44.429Z,26.56
2023-05-10T12:10:18.624Z,26.46
2023-05-10T12:12:54.383Z,26.44
2023-05-10T12:15:26.989Z,26.47
2023-05-10T12:17:59.179Z,26.51
2023-05-10T12:20:32.139Z,26.49
2023-05-10T12:23:04.633Z,26.45
2023-05-10T12:25:37.922Z,26.43
2023-05-10T12:28:10.920Z,26.48
2023-05-10T12:30:42.848Z,26.54
2023-05-10T12:33:17.749Z,26.52
2023-05-10T12:35:51.466Z,26.47
2023-05-10T12:38:31.996Z,26.42
2023-05-10T12:41:05.024Z,26.33
2023-05-10T12:43:37.066Z,26.28
2023-05-10T12:46:12.829Z,26.27
2023-05-10T12:48:46.448Z,26.23
2023-05-10T12:51:20.573Z,26.24
2023-05-10T12:53:51.916Z,26.30
2023-05-10T12:56:23.102Z,26.32
2023-05-10T12:58:55.070Z,26.30
2023-05-10T13:01:26.995Z,26.30
2023-05-10T13:03:58.139Z,26.34
2023-05-10T13:06:29.613Z,26.34
2023-05-10T13:09:01.173Z,26.31
2023-05-10T13:11:32.863Z,26.26
2023-05-10T13:14:04.781Z,26.16
2023-05-10T13:16:36.842Z,25.85
2023-05-10T13:19:08.081Z,25.26
2023-05-10T13:21:39.734Z,24.78
2023-05-10T13:24:12.099Z,24.43
2023-05-10T13:26:43.657Z,24.12
2023-05-10T13:29:14.911Z,23.80
2023-05-10T13:31:47.753Z,23.52
2023-05-10T13:34:21.630Z,23.28
2023-05-10T13:36:54.036Z,23.06
2023-05-10T13:39:26.066Z,22.85
2023-05-10T13:41:57.605Z,22.64
2023-05-10T13:44:29.103Z,22.50
2023-05-10T13:47:01.163Z,22.43
2023-05-10T13:49:33.369Z,22.36
2023-05-10T13:52:07.851Z,22.31
2023-05-10T13:54:39.710Z,22.24
2023-05-10T13:57:13.825Z,22.10
2023-05-10T13:59:45.917Z,21.88
2023-05-10T14:02:17.099Z,21.70
2023-05-10T14:04:49.328Z,21.57
2023-05-10T14:07:21.481Z,21.43
2023-05-10T14:09:53.073Z,21.33
2023-05-10T14:12:24.459Z,21.31
2023-05-10T14:14:59.331Z,21.29
2023-05-10T14:17:31.108Z,21.24
2023-05-10T14:20:03.811Z,21.15
2023-05-10T14:22:35.192Z,21.04
2023-05-10T14:25:07.835Z,20.92
2023-05-10T14:27:39.076Z,20.82
2023-05-10T14:30:12.959Z,20.74
2023-05-10T14:32:44.862Z,20.65
2023-05-10T14:35:19.379Z,20.54
2023-05-10T14:37:51.234Z,20.48
2023-05-10T14:40:22.769Z,20.43
2023-05-10T14:42:55.355Z,20.41
2023-05-10T14:45:26.966Z,20.35
2023-05-10T14:47:58.489Z,20.30
2023-05-10T14:50:35.829Z,20.26
2023-05-10T14:53:07.609Z,20.27
2023-05-10T14:55:40.005Z,20.33
2023-05-10T14:58:11.544Z,20.36
2023-05-10T15:00:43.166Z,20.36
2023-05-10T15:03:16.093Z,20.36
2023-05-10T15:05:48.793Z,20.34
2023-05-10T15:08:20.102Z,20.34
2023-05-10T15:10:51.551Z,20.37
2023-05-10T15:13:23.142Z,20.44
2023-05-10T15:15:54.412Z,20.51
2023-05-10T15:18:25.956Z,20.57
2023-05-10T15:20:57.857Z,20.58
2023-05-10T15:23:29.882Z,20.59
2023-05-10T15:26:01.245Z,20.58
2023-05-10T15:28:34.286Z,20.61
2023-05-10T15:31:06.109Z,20.68
2023-05-10T15:33:38.948Z,20.77
2023-05-10T15:36:10.837Z,20.91
2023-05-10T15:38:42.199Z,21.07
2023-05-10T15:41:13.309Z,21.22
2023-05-10T15:43:44.824Z,21.37
2023-05-10T15:46:16.086Z,21.50
2023-05-10T15:48:47.769Z,21.61
2023-05-10T15:51:19.863Z,21.73
2023-05-10T15:54:05.773Z,21.84
2023-05-10T15:56:38.256Z,21.93
2023-05-10T15:59:11.071Z,22.01
2023-05-10T16:01:42.766Z,22.10
2023-05-10T16:04:14.764Z,22.17
2023-05-10T16:06:46.450Z,22.25
2023-05-10T16:09:18.111Z,22.32
2023-05-10T16:11:49.796Z,22.40
2023-05-10T16:14:23.206Z,22.48
2023-05-10T16:16:54.851Z,22.55
2023-05-10T16:19:27.765Z,22.62
2023-05-10T16:22:01.500Z,22.68
2023-05-10T16:24:33.112Z,22.74
2023-05-10T16:27:04.839Z,22.78
2023-05-10T16:29:36.192Z,22.82
2023-05-10T16:32:08.094Z,22.85
2023-05-10T16:34:40.142Z,22.88
2023-05-10T16:37:11.913Z,22.90
2023-05-10T16:39:43.526Z,22.93
2023-05-10T16:42:16.245Z,22.95
2023-05-10T16:44:47.999Z,22.97
2023-05-10T16:47:20.004Z,22.98
2023-05-10T16:49:51.185Z,22.98
2023-05-10T16:52:22.387Z,22.99
2023-05-10T16:54:55.446Z,23.00
2023-05-10T16:57:27.260Z,23.01
2023-05-10T16:59:58.892Z,23.01
2023-05-10T17:02:30.477Z,23.02
2023-05-10T17:05:01.966Z,23.02
2023-05-10T17:07:33.353Z,23.01
2023-05-10T17:10:04.514Z,23.00
2023-05-10T17:12:36.260Z,22.99
2023-05-10T17:15:09.212Z,22.98
2023-05-10T17:17:40.939Z,22.97
2023-05-10T17:20:13.802Z,22.97
2023-05-10T17:22:45.150Z,22.97
2023-05-10T17:25:16.848Z,22.95
2023-05-10T17:27:48.655Z,22.92
2023-05-10T17:30:26.255Z,22.92
2023-05-10T17:32:57.454Z,22.96
2023-05-10T17:35:30.712Z,23.03
2023-05-10T17:38:02.152Z,23.09
2023-05-10T17:40:33.698Z,23.14
2023-05-10T17:43:05.963Z,23.20
2023-05-10T17:45:37.666Z,23.24
2023-05-10T17:48:11.542Z,23.28
2023-05-10T17:50:46.052Z,23.33
2023-05-10T17:53:17.285Z,23.39
2023-05-10T17:55:48.810Z,23.43
2023-05-10T17:58:20.319Z,23.44
2023-05-10T18:00:51.311Z,23.46
2023-05-10T18:03:22.835Z,23.52
2023-05-10T18:05:55.491Z,23.54
2023-05-10T18:08:28.874Z,23.56
2023-05-10T18:11:00.735Z,23.58
2023-05-10T18:13:32.381Z,23.58
2023-05-10T18:16:05.066Z,23.50
2023-05-10T18:18:37.236Z,23.03
2023-05-10T18:21:08.975Z,22.57
2023-05-10T18:23:40.442Z,22.32
2023-05-10T18:26:12.143Z,22.22
2023-05-10T18:28:43.593Z,22.19
2023-05-10T18:31:15.066Z,22.16
2023-05-10T18:33:46.945Z,22.11
2023-05-10T18:36:19.384Z,22.15
2023-05-10T18:38:51.224Z,22.27
2023-05-10T18:41:22.588Z,22.37
2023-05-10T18:43:54.004Z,22.45
2023-05-10T18:46:25.705Z,22.49
2023-05-10T18:48:57.284Z,22.51
2023-05-10T18:51:29.864Z,22.53
2023-05-10T18:54:01.234Z,22.56
2023-05-10T18:56:32.488Z,22.56
2023-05-10T18:59:04.052Z,22.52
2023-05-10T19:01:35.858Z,22.52
2023-05-10T19:04:08.738Z,22.59
2023-05-10T19:06:42.081Z,22.67
2023-05-10T19:09:15.825Z,22.74
2023-05-10T19:11:47.636Z,22.80
2023-05-10T19:14:20.188Z,22.86
2023-05-10T19:16:54.815Z,22.90
2023-05-10T19:19:28.022Z,22.93
2023-05-10T19:22:01.339Z,22.92
2023-05-10T19:24:38.258Z,22.87
2023-05-10T19:27:11.050Z,22.75
2023-05-10T19:29:43.873Z,22.66
2023-05-10T19:32:17.477Z,22.57
2023-05-10T19:34:49.155Z,22.48
2023-05-10T19:37:24.145Z,22.36
2023-05-10T19:39:57.879Z,22.25
2023-05-10T19:42:32.590Z,22.14
2023-05-10T19:45:04.565Z,22.08
2023-05-10T19:47:37.391Z,22.06
2023-05-10T19:50:17.433Z,22.06
2023-05-10T19:52:49.631Z,22.05
2023-05-10T19:55:30.512Z,22.03
2023-05-10T19:58:03.336Z,22.01
2023-05-10T20:00:35.700Z,21.98
2023-05-10T20:03:10.962Z,21.97
2023-05-10T20:05:42.915Z,21.96
2023-05-10T20:08:16.962Z,21.96
2023-05-10T20:10:52.334Z,21.95
2023-05-10T20:13:26.026Z,21.94
2023-05-10T20:16:04.668Z,21.91
2023-05-10T20:18:39.192Z,21.88
2023-05-10T20:21:13.423Z,21.83
2023-05-10T20:23:45.176Z,21.77
2023-05-10T20:26:17.673Z,21.71
2023-05-10T20:28:51.098Z,21.62
2023-05-10T20:31:25.614Z,21.46
2023-05-10T20:33:59.358Z,21.34
2023-05-10T20:36:33.764Z,21.24
2023-05-10T20:39:07.414Z,21.20
2023-05-10T20:41:39.255Z,21.21
2023-05-10T20:44:12.874Z,21.23
2023-05-10T20:46:45.160Z,21.24
2023-05-10T20:49:17.779Z,21.24
2023-05-10T20:51:49.260Z,21.27
2023-05-10T20:54:22.462Z,21.28
2023-05-10T20:56:54.532Z,21.29
2023-05-10T20:59:26.191Z,21.32
2023-05-10T21:01:58.047Z,21.33
2023-05-10T21:04:29.936Z,21.32
2023-05-10T21:07:01.046Z,21.34
2023-05-10T21:09:32.568Z,21.34
2023-05-10T21:12:04.279Z,21.33
2023-05-10T21:14:35.863Z,21.32
2023-05-10T21:17:07.404Z,21.31
2023-05-10T21:19:38.717Z,21.29
2023-05-10T21:22:10.056Z,21.26
2023-05-10T21:24:41.522Z,21.23
2023-05-10T21:27:13.311Z,21.18
2023-05-10T21:29:45.107Z,21.07
2023-05-10T21:32:16.283Z,20.94
2023-05-10T21:34:47.609Z,20.74
2023-05-10T21:37:19.653Z,20.54
2023-05-10T21:39:52.946Z,20.41
2023-05-10T21:42:24.388Z,20.32
2023-05-10T21:44:55.983Z,20.26
2023-05-10T21:47:27.712Z,20.21
2023-05-10T21:50:00.253Z,20.19
2023-05-10T21:52:31.965Z,20.13
2023-05-10T21:55:03.642Z,20.13
2023-05-10T21:57:35.320Z,20.17
2023-05-10T22:00:09.085Z,20.24
2023-05-10T22:02:41.074Z,20.31
2023-05-10T22:05:13.242Z,20.38
2023-05-10T22:07:44.792Z,20.45
2023-05-10T22:10:16.685Z,20.51
2023-05-10T22:12:48.446Z,20.55
2023-05-10T22:15:20.184Z,20.58
2023-05-10T22:17:51.685Z,20.61
2023-05-10T22:20:23.214Z,20.62
2023-05-10T22:22:54.970Z,20.62
2023-05-10T22:25:26.486Z,20.61
2023-05-10T22:27:57.756Z,20.61
2023-05-10T22:30:30.458Z,20.62
2023-05-10T22:33:03.738Z,20.62
2023-05-10T22:35:36.121Z,20.62
2023-05-10T22:38:07.130Z,20.63
2023-05-10T22:40:38.284Z,20.63
2023-05-10T22:43:09.565Z,20.63
2023-05-10T22:45:41.385Z,20.65
2023-05-10T22:48:13.302Z,20.68
2023-05-10T22:50:44.574Z,20.70
2023-05-10T22:53:15.799Z,20.73
2023-05-10T22:55:47.582Z,20.74
2023-05-10T22:58:19.256Z,20.74
2023-05-10T23:00:50.395Z,20.76
2023-05-10T23:03:22.054Z,20.77
2023-05-10T23:05:53.083Z,20.77
2023-05-10T23:08:24.637Z,20.78
2023-05-10T23:10:55.936Z,20.78
2023-05-10T23:13:27.314Z,20.78
2023-05-10T23:16:01.876Z,20.78
2023-05-10T23:18:33.688Z,20.78
2023-05-10T23:21:05.594Z,20.78
2023-05-10T23:23:37.514Z,20.80
2023-05-10T23:26:09.539Z,20.82
2023-05-10T23:28:41.179Z,20.85
2023-05-10T23:31:12.830Z,20.88
2023-05-10T23:33:44.386Z,20.91
2023-05-10T23:36:15.741Z,20.91
2023-05-10T23:38:47.240Z,20.90
2023-05-10T23:41:18.640Z,20.89
2023-05-10T23:43:49.898Z,20.88
2023-05-10T23:46:21.764Z,20.87
2023-05-10T23:48:52.962Z,20.87
2023-05-10T23:51:24.922Z,20.87
2023-05-10T23:53:56.421Z,20.84
2023-05-10T23:56:27.969Z,20.83
2023-05-10T23:58:59.307Z,20.83
